Current Conditions

Updated: 18-Jan-2018 05:43 AM  
Summary / Temperature Wind Rain






Feels like: 51°F

1-hour difference
0.4°F 0.4°F colder than last hour.

24-hour difference
0.8°F0.8°F warmer than yesterday at this time.

  Today Yesterday
High: 52.1°F
12:00 AM
60.4°F
1:53 PM
Low: 50.5°F
5:40 AM
48.0°F
7:21 AM
Calm W
0.0
Gust:  0.0 mph
0 Beaufort - Calm

Today: 4.6 - 12:54 AM
Month: 11.5 mph - Jan 10
Rain Today: 0.00 in
Current Rate (/hr): 0.000 in
Max Rate (/hr):
Rain Yesterday: 0.01 in
Storm Rain: 0.00 in
This Month: 0.81 in
Season Total: 1.55 in
Last Rain Event: 1 day ago
Humidity / Barometer Sun / Moon
Humidity: 97 Increased 1.0% in the last hour.
Dew Point: 49.7°F Decreased 0.1°F in the last hour.
Barometer: 30.156 inHg  
Baro Trend: Steady
Sunrise: 7:06 AM
Sunset: 5:07 PM
Moonrise: 8:06 AM
Moonset: 5:51 PM
Sky Conditions UV Index
Summary: Mist, Overcast
Visibility: ¾ mile
Clouds: Overcast @ 200 ft
KVIS - 4:56 AM PST
Current: 0.0  None 
Thursday: 2.4  Low 
Friday: 2.3  Low 
Air Quality Fire Danger
 Unhealthy for Sensitive Groups 
Ozone 11 ppb
PM 2.5 43 μg/m3
5:40 AM PST
Current: 0  Low 

Local Alerts Local Forecast
Local NWS Alerts
Today

Rain
Showers
High 64
Tonight

Rain

Low 44
Fri

Rain
Showers
High 54
Fri night

Rain
Showers
Low 37
Sat

Rain
Showers
High 51
Sat night

Partly
Cloudy
Low 31
Sun

Partly
Cloudy
High 55

Local Radar Local Satellite Neighborhood Cam Sky Cam
Local Radar Local Satellite Neighborhood Cam Sky Cam


Nearby Personal Stations

Weather Underground PWS KCAEXETE7     Weather Underground PWS KCAEXETE6     Weather Underground PWS KCAEXETE11

Nearby Airport Stations

KVIS - Visalia, California, USA
Distance from station: W 14mi, 23km
Updated: Thu, 18-Jan-2018 4:56am PST
Mist, Overcast
Mist, Overcast
 Wind from calm
Wind: Calm
Temperature: 50°F , 10°C
Dew Point: 48°F , 9°C
Humidity: 94%
Barometer: 30.17 inHg , 1021.7 hPa
Summary: Mist
Clouds: Overcast
Visibility: 3/4 mile , 5 km
Cloud details: Overcast 200 ft
2018/01/18 12:56 KVIS 181256Z AUTO 00000KT 3/4SM BR OVC002 10/09 A3017 RMK AO2 SLP225 T01000094
KPTV - Porterville, California, USA
Distance from station: SSE 19mi, 31km
Updated: Thu, 18-Jan-2018 5:34am PST
Fog, Overcast
Fog, Overcast
 Wind from calm
Wind: Calm
Temperature: 48°F , 9°C
Dew Point: 48°F , 9°C
Humidity: 100%
Barometer: 30.17 inHg , 1021.7 hPa
Summary: Fog
Clouds: Overcast
Visibility: 1/2 mile , 2 km
Cloud details: Overcast 300 ft
2018/01/18 13:34 KPTV 181334Z AUTO 00000KT 1/2SM FG OVC003 09/09 A3017 RMK AO2

Metar display script from Saratoga-Weather.org



Visitor Map